<?xml version="1.0" encoding="UTF-8" standalone="no" ?>
<gpx xmlns="http://www.topografix.com/GPX/1/1" xmlns:xsi="http://www.w3.org/2001/XMLSchema-instance" xsi:schemaLocation="http://www.topografix.com/GPX/1/1 http://www.topografix.com/GPX/1/1/gpx.xsd" version="1.1" creator="VisuGPX - https://www.visugpx.com">
  <metadata>
    <name>grand_colombier-TET</name>
    <desc><![CDATA[name=2022 09 24 Begin of the TET section 20 Track
cmt=
desc=
time=2022-09-24T09:46:08Z]]></desc>
  </metadata>
  <wpt lat="45.85842" lon="5.77164">
    <ele>661.1</ele>
    <name><![CDATA[à vérif]]></name>
    <desc><![CDATA[name=à vérif]]></desc>
  </wpt>
  <wpt lat="45.86391" lon="5.82138">
    <ele>238.1</ele>
    <name><![CDATA[ok]]></name>
    <desc><![CDATA[name=ok]]></desc>
  </wpt>
  <wpt lat="46.00337" lon="5.81125">
    <ele>271.3</ele>
    <name><![CDATA[ok]]></name>
    <desc><![CDATA[name=ok]]></desc>
  </wpt>
  <wpt lat="45.98447" lon="5.79127">
    <ele>573.6</ele>
    <name><![CDATA[ok]]></name>
    <desc><![CDATA[name=ok]]></desc>
  </wpt>
  <wpt lat="45.97026" lon="5.76896">
    <ele>1090.4</ele>
    <name><![CDATA[ok]]></name>
    <desc><![CDATA[name=ok]]></desc>
  </wpt>
  <wpt lat="46.09692" lon="5.77954">
    <ele>576.7</ele>
    <name><![CDATA[ok]]></name>
    <desc><![CDATA[name=ok]]></desc>
  </wpt>
  <wpt lat="46.17247" lon="5.75381">
    <ele>531.9</ele>
    <name><![CDATA[ok]]></name>
    <desc><![CDATA[name=ok]]></desc>
  </wpt>
  <wpt lat="45.89804" lon="5.73838">
    <ele>910.1</ele>
    <name><![CDATA[ok]]></name>
    <desc><![CDATA[name=ok]]></desc>
  </wpt>
  <wpt lat="45.92864" lon="5.73929">
    <ele>830.7</ele>
  </wpt>
  <wpt lat="45.95229" lon="5.74925">
    <ele>1311.1</ele>
  </wpt>
  <wpt lat="45.86162" lon="5.79089">
    <ele>594.4</ele>
    <name><![CDATA[par la route]]></name>
    <desc><![CDATA[name=par la route]]></desc>
  </wpt>
  <wpt lat="45.92514" lon="5.79762">
    <ele>682.4</ele>
    <name><![CDATA[Vérif si autorisé]]></name>
    <desc><![CDATA[name=Vérif si autorisé]]></desc>
  </wpt>
  <wpt lat="45.89315" lon="5.7063">
    <ele>484.5</ele>
    <name><![CDATA[ok]]></name>
    <desc><![CDATA[name=ok]]></desc>
  </wpt>
  <wpt lat="45.87199" lon="5.7075">
    <ele>246.1</ele>
    <name><![CDATA[ok]]></name>
    <desc><![CDATA[name=ok]]></desc>
  </wpt>
  <wpt lat="45.8999" lon="5.83082">
    <ele>240</ele>
    <name><![CDATA[ok]]></name>
    <desc><![CDATA[name=ok]]></desc>
  </wpt>
  <trk>
    <name><![CDATA[2022 09 24 Begin of the TET section 20 Track]]></name>
    <desc><![CDATA[name=2022 09 24 Begin of the TET section 20 Track
cmt=
desc=
time=2022-09-24T09:46:08Z]]></desc>
    <extensions>
      <line xmlns="http://www.topografix.com/GPX/gpx_style/0/2">
        <color>0000FF</color>
        <width>4</width>
      </line>
    </extensions>
    <trkseg>
      <trkpt lat="45.99571" lon="5.93533">
        <ele>494.348</ele>
        <time>2022-09-24T09:46:08Z</time>
      </trkpt>
      <trkpt lat="45.99621" lon="5.93523">
        <ele>497.661</ele>
        <time>2022-09-24T09:46:13Z</time>
      </trkpt>
      <trkpt lat="45.99684" lon="5.93382">
        <ele>506.817</ele>
        <time>2022-09-24T09:46:22Z</time>
      </trkpt>
      <trkpt lat="45.99702" lon="5.93104">
        <ele>526.909</ele>
        <time>2022-09-24T09:46:43Z</time>
      </trkpt>
      <trkpt lat="45.99662" lon="5.93148">
        <ele>532.785</ele>
        <time>2022-09-24T09:46:56Z</time>
      </trkpt>
      <trkpt lat="45.99499" lon="5.93017">
        <ele>560.185</ele>
        <time>2022-09-24T09:47:31Z</time>
      </trkpt>
      <trkpt lat="45.99467" lon="5.92928">
        <ele>570.258</ele>
        <time>2022-09-24T09:47:41Z</time>
      </trkpt>
      <trkpt lat="45.99463" lon="5.92819">
        <ele>583.791</ele>
        <time>2022-09-24T09:47:56Z</time>
      </trkpt>
      <trkpt lat="45.99448" lon="5.92801">
        <ele>589.034</ele>
        <time>2022-09-24T09:48:54Z</time>
      </trkpt>
      <trkpt lat="45.99433" lon="5.92707">
        <ele>598.66</ele>
        <time>2022-09-24T10:15:47Z</time>
      </trkpt>
      <trkpt lat="45.99543" lon="5.92656">
        <ele>597.113</ele>
        <time>2022-09-24T10:16:44Z</time>
      </trkpt>
      <trkpt lat="45.99646" lon="5.92518">
        <ele>601.987</ele>
        <time>2022-09-24T10:17:07Z</time>
      </trkpt>
      <trkpt lat="45.99718" lon="5.92372">
        <ele>592.813</ele>
        <time>2022-09-24T10:17:31Z</time>
      </trkpt>
      <trkpt lat="45.99746" lon="5.92134">
        <ele>577.937</ele>
        <time>2022-09-24T10:18:26Z</time>
      </trkpt>
      <trkpt lat="45.99814" lon="5.91875">
        <ele>569.249</ele>
        <time>2022-09-24T10:18:48Z</time>
      </trkpt>
      <trkpt lat="45.99823" lon="5.91784">
        <ele>565.413</ele>
        <time>2022-09-24T10:18:55Z</time>
      </trkpt>
      <trkpt lat="45.9981" lon="5.91596">
        <ele>560.109</ele>
        <time>2022-09-24T10:19:08Z</time>
      </trkpt>
      <trkpt lat="45.99827" lon="5.91487">
        <ele>561.584</ele>
        <time>2022-09-24T10:19:16Z</time>
      </trkpt>
      <trkpt lat="45.99767" lon="5.91279">
        <ele>565.984</ele>
        <time>2022-09-24T10:19:32Z</time>
      </trkpt>
      <trkpt lat="45.99755" lon="5.9106">
        <ele>568.347</ele>
        <time>2022-09-24T10:19:49Z</time>
      </trkpt>
      <trkpt lat="45.99788" lon="5.90961">
        <ele>568.81</ele>
        <time>2022-09-24T10:20:00Z</time>
      </trkpt>
      <trkpt lat="45.99845" lon="5.90854">
        <ele>564.083</ele>
        <time>2022-09-24T10:20:15Z</time>
      </trkpt>
      <trkpt lat="45.99941" lon="5.90749">
        <ele>546.689</ele>
        <time>2022-09-24T10:20:50Z</time>
      </trkpt>
      <trkpt lat="46.00015" lon="5.90701">
        <ele>539.962</ele>
        <time>2022-09-24T10:21:01Z</time>
      </trkpt>
      <trkpt lat="46.00038" lon="5.90651">
        <ele>535.196</ele>
        <time>2022-09-24T10:21:07Z</time>
      </trkpt>
      <trkpt lat="46.00038" lon="5.90583">
        <ele>529.382</ele>
        <time>2022-09-24T10:21:14Z</time>
      </trkpt>
      <trkpt lat="46.00065" lon="5.90505">
        <ele>519.375</ele>
        <time>2022-09-24T10:21:26Z</time>
      </trkpt>
      <trkpt lat="46.00147" lon="5.90482">
        <ele>514.028</ele>
        <time>2022-09-24T10:21:36Z</time>
      </trkpt>
      <trkpt lat="46.00174" lon="5.90445">
        <ele>512.02</ele>
        <time>2022-09-24T10:21:40Z</time>
      </trkpt>
      <trkpt lat="46.00265" lon="5.90376">
        <ele>508.709</ele>
        <time>2022-09-24T10:21:49Z</time>
      </trkpt>
      <trkpt lat="46.00293" lon="5.90172">
        <ele>501.078</ele>
        <time>2022-09-24T10:22:01Z</time>
      </trkpt>
      <trkpt lat="46.00289" lon="5.90091">
        <ele>498.158</ele>
        <time>2022-09-24T10:22:07Z</time>
      </trkpt>
      <trkpt lat="46.00392" lon="5.89904">
        <ele>491.991</ele>
        <time>2022-09-24T10:22:24Z</time>
      </trkpt>
      <trkpt lat="46.00415" lon="5.89671">
        <ele>480.324</ele>
        <time>2022-09-24T10:22:42Z</time>
      </trkpt>
      <trkpt lat="46.00482" lon="5.89404">
        <ele>466.447</ele>
        <time>2022-09-24T10:23:02Z</time>
      </trkpt>
      <trkpt lat="46.0055" lon="5.89315">
        <ele>457.273</ele>
        <time>2022-09-24T10:23:11Z</time>
      </trkpt>
      <trkpt lat="46.00622" lon="5.89266">
        <ele>448.156</ele>
        <time>2022-09-24T10:23:18Z</time>
      </trkpt>
      <trkpt lat="46.00804" lon="5.89034">
        <ele>428.47</ele>
        <time>2022-09-24T10:23:38Z</time>
      </trkpt>
      <trkpt lat="46.0092" lon="5.88866">
        <ele>417.466</ele>
        <time>2022-09-24T10:23:51Z</time>
      </trkpt>
      <trkpt lat="46.0103" lon="5.88621">
        <ele>394.879</ele>
        <time>2022-09-24T10:24:19Z</time>
      </trkpt>
      <trkpt lat="46.01057" lon="5.88614">
        <ele>393.305</ele>
        <time>2022-09-24T10:24:23Z</time>
      </trkpt>
      <trkpt lat="46.01163" lon="5.88675">
        <ele>395.225</ele>
        <time>2022-09-24T10:24:34Z</time>
      </trkpt>
      <trkpt lat="46.01388" lon="5.88955">
        <ele>390.909</ele>
        <time>2022-09-24T10:24:52Z</time>
      </trkpt>
      <trkpt lat="46.01514" lon="5.89037">
        <ele>378.978</ele>
        <time>2022-09-24T10:25:03Z</time>
      </trkpt>
      <trkpt lat="46.01521" lon="5.89078">
        <ele>374.658</ele>
        <time>2022-09-24T10:25:07Z</time>
      </trkpt>
      <trkpt lat="46.01485" lon="5.89147">
        <ele>369.381</ele>
        <time>2022-09-24T10:25:13Z</time>
      </trkpt>
      <trkpt lat="46.01491" lon="5.89224">
        <ele>364.514</ele>
        <time>2022-09-24T10:25:18Z</time>
      </trkpt>
      <trkpt lat="46.01511" lon="5.89249">
        <ele>361.157</ele>
        <time>2022-09-24T10:25:21Z</time>
      </trkpt>
      <trkpt lat="46.01581" lon="5.89243">
        <ele>354.423</ele>
        <time>2022-09-24T10:25:28Z</time>
      </trkpt>
      <trkpt lat="46.01634" lon="5.89342">
        <ele>352.056</ele>
        <time>2022-09-24T10:25:39Z</time>
      </trkpt>
      <trkpt lat="46.01694" lon="5.89262">
        <ele>354.44</ele>
        <time>2022-09-24T10:25:47Z</time>
      </trkpt>
      <trkpt lat="46.01784" lon="5.88936">
        <ele>381.816</ele>
        <time>2022-09-24T10:26:09Z</time>
      </trkpt>
      <trkpt lat="46.0179" lon="5.89037">
        <ele>387.135</ele>
        <time>2022-09-24T10:26:21Z</time>
      </trkpt>
      <trkpt lat="46.02077" lon="5.89037">
        <ele>387.186</ele>
        <time>2022-09-24T10:26:50Z</time>
      </trkpt>
      <trkpt lat="46.02135" lon="5.89087">
        <ele>378.914</ele>
        <time>2022-09-24T10:26:58Z</time>
      </trkpt>
      <trkpt lat="46.02244" lon="5.89028">
        <ele>364.009</ele>
        <time>2022-09-24T10:27:12Z</time>
      </trkpt>
      <trkpt lat="46.02208" lon="5.88923">
        <ele>353.944</ele>
        <time>2022-09-24T10:27:22Z</time>
      </trkpt>
      <trkpt lat="46.02224" lon="5.88881">
        <ele>350.164</ele>
        <time>2022-09-24T10:27:25Z</time>
      </trkpt>
      <trkpt lat="46.02274" lon="5.88857">
        <ele>344.877</ele>
        <time>2022-09-24T10:27:30Z</time>
      </trkpt>
      <trkpt lat="46.02392" lon="5.89079">
        <ele>330.46</ele>
        <time>2022-09-24T10:27:44Z</time>
      </trkpt>
      <trkpt lat="46.02427" lon="5.89097">
        <ele>327.573</ele>
        <time>2022-09-24T10:27:47Z</time>
      </trkpt>
      <trkpt lat="46.02491" lon="5.89088">
        <ele>319.349</ele>
        <time>2022-09-24T10:27:54Z</time>
      </trkpt>
      <trkpt lat="46.02499" lon="5.88984">
        <ele>311.152</ele>
        <time>2022-09-24T10:28:01Z</time>
      </trkpt>
      <trkpt lat="46.02459" lon="5.88847">
        <ele>299.146</ele>
        <time>2022-09-24T10:28:10Z</time>
      </trkpt>
      <trkpt lat="46.02562" lon="5.8865">
        <ele>293.332</ele>
        <time>2022-09-24T10:28:42Z</time>
      </trkpt>
      <trkpt lat="46.02471" lon="5.88534">
        <ele>294.869</ele>
        <time>2022-09-24T10:28:52Z</time>
      </trkpt>
      <trkpt lat="46.02388" lon="5.88384">
        <ele>295.304</ele>
        <time>2022-09-24T10:29:02Z</time>
      </trkpt>
      <trkpt lat="46.02487" lon="5.88266">
        <ele>301.524</ele>
        <time>2022-09-24T10:29:15Z</time>
      </trkpt>
      <trkpt lat="46.02514" lon="5.88021">
        <ele>332.709</ele>
        <time>2022-09-24T10:29:37Z</time>
      </trkpt>
      <trkpt lat="46.02531" lon="5.88045">
        <ele>335.627</ele>
        <time>2022-09-24T10:29:42Z</time>
      </trkpt>
      <trkpt lat="46.02595" lon="5.88067">
        <ele>359.257</ele>
        <time>2022-09-24T10:30:00Z</time>
      </trkpt>
      <trkpt lat="46.02686" lon="5.88136">
        <ele>362.24</ele>
        <time>2022-09-24T10:33:55Z</time>
      </trkpt>
      <trkpt lat="46.02706" lon="5.88132">
        <ele>364.313</ele>
        <time>2022-09-24T10:34:53Z</time>
      </trkpt>
      <trkpt lat="46.02762" lon="5.88014">
        <ele>381.096</ele>
        <time>2022-09-24T10:39:25Z</time>
      </trkpt>
      <trkpt lat="46.02822" lon="5.88012">
        <ele>389.852</ele>
        <time>2022-09-24T10:42:07Z</time>
      </trkpt>
      <trkpt lat="46.02812" lon="5.87998">
        <ele>390.465</ele>
        <time>2022-09-24T10:42:14Z</time>
      </trkpt>
      <trkpt lat="46.02855" lon="5.87975">
        <ele>393.339</ele>
        <time>2022-09-24T10:42:23Z</time>
      </trkpt>
      <trkpt lat="46.02922" lon="5.87892">
        <ele>402.945</ele>
        <time>2022-09-24T10:42:35Z</time>
      </trkpt>
      <trkpt lat="46.03056" lon="5.8791">
        <ele>424.662</ele>
        <time>2022-09-24T10:42:53Z</time>
      </trkpt>
      <trkpt lat="46.03097" lon="5.87887">
        <ele>437.183</ele>
        <time>2022-09-24T10:43:01Z</time>
      </trkpt>
      <trkpt lat="46.03134" lon="5.87829">
        <ele>447.611</ele>
        <time>2022-09-24T10:43:10Z</time>
      </trkpt>
      <trkpt lat="46.03213" lon="5.87625">
        <ele>462.109</ele>
        <time>2022-09-24T10:43:30Z</time>
      </trkpt>
      <trkpt lat="46.03405" lon="5.87281">
        <ele>481.347</ele>
        <time>2022-09-24T10:44:08Z</time>
      </trkpt>
      <trkpt lat="46.03458" lon="5.87037">
        <ele>489.417</ele>
        <time>2022-09-24T10:44:28Z</time>
      </trkpt>
      <trkpt lat="46.03507" lon="5.86908">
        <ele>496.26</ele>
        <time>2022-09-24T10:44:41Z</time>
      </trkpt>
      <trkpt lat="46.03829" lon="5.86372">
        <ele>511.613</ele>
        <time>2022-09-24T10:45:41Z</time>
      </trkpt>
      <trkpt lat="46.03923" lon="5.86271">
        <ele>512.566</ele>
        <time>2022-09-24T10:45:50Z</time>
      </trkpt>
      <trkpt lat="46.04193" lon="5.85761">
        <ele>521.612</ele>
        <time>2022-09-24T10:46:38Z</time>
      </trkpt>
      <trkpt lat="46.04241" lon="5.85767">
        <ele>520.755</ele>
        <time>2022-09-24T10:46:48Z</time>
      </trkpt>
      <trkpt lat="46.04242" lon="5.85735">
        <ele>520.799</ele>
        <time>2022-09-24T10:46:53Z</time>
      </trkpt>
      <trkpt lat="46.04423" lon="5.85424">
        <ele>524.165</ele>
        <time>2022-09-24T10:47:17Z</time>
      </trkpt>
      <trkpt lat="46.04523" lon="5.85101">
        <ele>530.839</ele>
        <time>2022-09-24T10:47:42Z</time>
      </trkpt>
      <trkpt lat="46.04451" lon="5.85025">
        <ele>534.101</ele>
        <time>2022-09-24T10:47:51Z</time>
      </trkpt>
      <trkpt lat="46.04322" lon="5.84948">
        <ele>539.421</ele>
        <time>2022-09-24T10:47:59Z</time>
      </trkpt>
      <trkpt lat="46.0428" lon="5.84897">
        <ele>538.509</ele>
        <time>2022-09-24T10:48:02Z</time>
      </trkpt>
      <trkpt lat="46.04071" lon="5.8446">
        <ele>526.554</ele>
        <time>2022-09-24T10:48:22Z</time>
      </trkpt>
      <trkpt lat="46.04064" lon="5.84405">
        <ele>524.114</ele>
        <time>2022-09-24T10:48:25Z</time>
      </trkpt>
      <trkpt lat="46.04418" lon="5.83078">
        <ele>490.467</ele>
        <time>2022-09-24T10:49:15Z</time>
      </trkpt>
      <trkpt lat="46.04469" lon="5.82901">
        <ele>491.44</ele>
        <time>2022-09-24T10:49:27Z</time>
      </trkpt>
      <trkpt lat="46.04489" lon="5.8288">
        <ele>491.413</ele>
        <time>2022-09-24T10:49:30Z</time>
      </trkpt>
      <trkpt lat="46.04492" lon="5.828">
        <ele>490.449</ele>
        <time>2022-09-24T10:49:36Z</time>
      </trkpt>
      <trkpt lat="46.04593" lon="5.82578">
        <ele>484.672</ele>
        <time>2022-09-24T10:49:49Z</time>
      </trkpt>
      <trkpt lat="46.04598" lon="5.82514">
        <ele>482.256</ele>
        <time>2022-09-24T10:49:52Z</time>
      </trkpt>
      <trkpt lat="46.04572" lon="5.82378">
        <ele>477.442</ele>
        <time>2022-09-24T10:49:58Z</time>
      </trkpt>
      <trkpt lat="46.04578" lon="5.82334">
        <ele>476.519</ele>
        <time>2022-09-24T10:50:00Z</time>
      </trkpt>
      <trkpt lat="46.04718" lon="5.82091">
        <ele>478.909</ele>
        <time>2022-09-24T10:50:13Z</time>
      </trkpt>
      <trkpt lat="46.04759" lon="5.81818">
        <ele>473.619</ele>
        <time>2022-09-24T10:50:24Z</time>
      </trkpt>
      <trkpt lat="46.04798" lon="5.81754">
        <ele>469.309</ele>
        <time>2022-09-24T10:50:28Z</time>
      </trkpt>
      <trkpt lat="46.04912" lon="5.81665">
        <ele>461.672</ele>
        <time>2022-09-24T10:50:37Z</time>
      </trkpt>
      <trkpt lat="46.04959" lon="5.81666">
        <ele>458.212</ele>
        <time>2022-09-24T10:50:40Z</time>
      </trkpt>
      <trkpt lat="46.05139" lon="5.81758">
        <ele>442.355</ele>
        <time>2022-09-24T10:50:51Z</time>
      </trkpt>
      <trkpt lat="46.05176" lon="5.81746">
        <ele>438.088</ele>
        <time>2022-09-24T10:50:55Z</time>
      </trkpt>
      <trkpt lat="46.05186" lon="5.81721">
        <ele>435.661</ele>
        <time>2022-09-24T10:50:57Z</time>
      </trkpt>
      <trkpt lat="46.05165" lon="5.81669">
        <ele>432.717</ele>
        <time>2022-09-24T10:51:01Z</time>
      </trkpt>
      <trkpt lat="46.05087" lon="5.81662">
        <ele>429.47</ele>
        <time>2022-09-24T10:51:07Z</time>
      </trkpt>
      <trkpt lat="46.0506" lon="5.8161">
        <ele>424.614</ele>
        <time>2022-09-24T10:51:11Z</time>
      </trkpt>
      <trkpt lat="46.05002" lon="5.81581">
        <ele>419.31</ele>
        <time>2022-09-24T10:51:17Z</time>
      </trkpt>
      <trkpt lat="46.04977" lon="5.81473">
        <ele>413.598</ele>
        <time>2022-09-24T10:51:25Z</time>
      </trkpt>
      <trkpt lat="46.04845" lon="5.81387">
        <ele>401.515</ele>
        <time>2022-09-24T10:51:35Z</time>
      </trkpt>
      <trkpt lat="46.04783" lon="5.81264">
        <ele>393.826</ele>
        <time>2022-09-24T10:51:43Z</time>
      </trkpt>
      <trkpt lat="46.04655" lon="5.81233">
        <ele>386.109</ele>
        <time>2022-09-24T10:51:53Z</time>
      </trkpt>
      <trkpt lat="46.04638" lon="5.8122">
        <ele>384.74</ele>
        <time>2022-09-24T10:51:55Z</time>
      </trkpt>
      <trkpt lat="46.04636" lon="5.81189">
        <ele>382.35</ele>
        <time>2022-09-24T10:51:58Z</time>
      </trkpt>
      <trkpt lat="46.04652" lon="5.81176">
        <ele>380.823</ele>
        <time>2022-09-24T10:52:00Z</time>
      </trkpt>
      <trkpt lat="46.0471" lon="5.81209">
        <ele>376.526</ele>
        <time>2022-09-24T10:52:05Z</time>
      </trkpt>
      <trkpt lat="46.04829" lon="5.81211">
        <ele>369.349</ele>
        <time>2022-09-24T10:52:13Z</time>
      </trkpt>
      <trkpt lat="46.04879" lon="5.81283">
        <ele>364.585</ele>
        <time>2022-09-24T10:52:19Z</time>
      </trkpt>
      <trkpt lat="46.04977" lon="5.81311">
        <ele>358.298</ele>
        <time>2022-09-24T10:52:27Z</time>
      </trkpt>
      <trkpt lat="46.05083" lon="5.81428">
        <ele>347.632</ele>
        <time>2022-09-24T10:52:37Z</time>
      </trkpt>
      <trkpt lat="46.05115" lon="5.81421">
        <ele>344.378</ele>
        <time>2022-09-24T10:52:40Z</time>
      </trkpt>
      <trkpt lat="46.05155" lon="5.81389">
        <ele>340.027</ele>
        <time>2022-09-24T10:52:44Z</time>
      </trkpt>
      <trkpt lat="46.0521" lon="5.81406">
        <ele>333.268</ele>
        <time>2022-09-24T10:52:52Z</time>
      </trkpt>
      <trkpt lat="46.0523" lon="5.8139">
        <ele>327.914</ele>
        <time>2022-09-24T10:54:17Z</time>
      </trkpt>
      <trkpt lat="46.05275" lon="5.8121">
        <ele>331.809</ele>
        <time>2022-09-24T10:54:29Z</time>
      </trkpt>
      <trkpt lat="46.05269" lon="5.81185">
        <ele>332.393</ele>
        <time>2022-09-24T10:54:31Z</time>
      </trkpt>
      <trkpt lat="46.05235" lon="5.81142">
        <ele>332.833</ele>
        <time>2022-09-24T10:54:35Z</time>
      </trkpt>
      <trkpt lat="46.05127" lon="5.8107">
        <ele>333.746</ele>
        <time>2022-09-24T10:54:43Z</time>
      </trkpt>
      <trkpt lat="46.0504" lon="5.81046">
        <ele>333.779</ele>
        <time>2022-09-24T10:54:50Z</time>
      </trkpt>
      <trkpt lat="46.0502" lon="5.8097">
        <ele>335.282</ele>
        <time>2022-09-24T10:54:55Z</time>
      </trkpt>
      <trkpt lat="46.05028" lon="5.80914">
        <ele>336.618</ele>
        <time>2022-09-24T10:54:58Z</time>
      </trkpt>
      <trkpt lat="46.05059" lon="5.80872">
        <ele>338.081</ele>
        <time>2022-09-24T10:55:03Z</time>
      </trkpt>
      <trkpt lat="46.05093" lon="5.80881">
        <ele>338.525</ele>
        <time>2022-09-24T10:55:05Z</time>
      </trkpt>
      <trkpt lat="46.05206" lon="5.80979">
        <ele>347.691</ele>
        <time>2022-09-24T10:55:14Z</time>
      </trkpt>
      <trkpt lat="46.05232" lon="5.80969">
        <ele>350.125</ele>
        <time>2022-09-24T10:55:17Z</time>
      </trkpt>
      <trkpt lat="46.05234" lon="5.80909">
        <ele>352.926</ele>
        <time>2022-09-24T10:55:21Z</time>
      </trkpt>
      <trkpt lat="46.05168" lon="5.80804">
        <ele>357.308</ele>
        <time>2022-09-24T10:55:28Z</time>
      </trkpt>
      <trkpt lat="46.05141" lon="5.80644">
        <ele>361.609</ele>
        <time>2022-09-24T10:55:38Z</time>
      </trkpt>
      <trkpt lat="46.05165" lon="5.80535">
        <ele>365.013</ele>
        <time>2022-09-24T10:55:46Z</time>
      </trkpt>
      <trkpt lat="46.05167" lon="5.80417">
        <ele>369.323</ele>
        <time>2022-09-24T10:55:55Z</time>
      </trkpt>
      <trkpt lat="46.05203" lon="5.80183">
        <ele>379.936</ele>
        <time>2022-09-24T10:56:10Z</time>
      </trkpt>
      <trkpt lat="46.05242" lon="5.80046">
        <ele>389.039</ele>
        <time>2022-09-24T10:56:19Z</time>
      </trkpt>
      <trkpt lat="46.05256" lon="5.80042">
        <ele>390.932</ele>
        <time>2022-09-24T10:56:21Z</time>
      </trkpt>
      <trkpt lat="46.05364" lon="5.79812">
        <ele>414.548</ele>
        <time>2022-09-24T10:56:39Z</time>
      </trkpt>
      <trkpt lat="46.05394" lon="5.79828">
        <ele>420.251</ele>
        <time>2022-09-24T10:56:43Z</time>
      </trkpt>
      <trkpt lat="46.05419" lon="5.79912">
        <ele>426.045</ele>
        <time>2022-09-24T10:56:49Z</time>
      </trkpt>
      <trkpt lat="46.05458" lon="5.79934">
        <ele>428.911</ele>
        <time>2022-09-24T10:56:55Z</time>
      </trkpt>
      <trkpt lat="46.05437" lon="5.7984">
        <ele>431.342</ele>
        <time>2022-09-24T10:57:04Z</time>
      </trkpt>
      <trkpt lat="46.05442" lon="5.79723">
        <ele>432.722</ele>
        <time>2022-09-24T10:57:18Z</time>
      </trkpt>
      <trkpt lat="46.05523" lon="5.79696">
        <ele>441.914</ele>
        <time>2022-09-24T10:57:29Z</time>
      </trkpt>
      <trkpt lat="46.05619" lon="5.79601">
        <ele>460.609</ele>
        <time>2022-09-24T10:57:42Z</time>
      </trkpt>
      <trkpt lat="46.05637" lon="5.79558">
        <ele>465.985</ele>
        <time>2022-09-24T10:57:46Z</time>
      </trkpt>
      <trkpt lat="46.05663" lon="5.79536">
        <ele>469.765</ele>
        <time>2022-09-24T10:57:49Z</time>
      </trkpt>
      <trkpt lat="46.05827" lon="5.79524">
        <ele>483.228</ele>
        <time>2022-09-24T10:58:02Z</time>
      </trkpt>
      <trkpt lat="46.05898" lon="5.795">
        <ele>490.491</ele>
        <time>2022-09-24T10:58:08Z</time>
      </trkpt>
      <trkpt lat="46.06018" lon="5.79429">
        <ele>498.674</ele>
        <time>2022-09-24T10:58:18Z</time>
      </trkpt>
      <trkpt lat="46.06251" lon="5.79183">
        <ele>511.16</ele>
        <time>2022-09-24T10:58:36Z</time>
      </trkpt>
      <trkpt lat="46.06365" lon="5.79135">
        <ele>517.813</ele>
        <time>2022-09-24T10:58:44Z</time>
      </trkpt>
      <trkpt lat="46.06574" lon="5.79147">
        <ele>523.627</ele>
        <time>2022-09-24T10:59:02Z</time>
      </trkpt>
      <trkpt lat="46.06649" lon="5.79055">
        <ele>525.583</ele>
        <time>2022-09-24T10:59:19Z</time>
      </trkpt>
      <trkpt lat="46.07078" lon="5.78995">
        <ele>508.238</ele>
        <time>2022-09-24T11:00:32Z</time>
      </trkpt>
      <trkpt lat="46.07181" lon="5.78895">
        <ele>507.27</ele>
        <time>2022-09-24T11:00:51Z</time>
      </trkpt>
      <trkpt lat="46.0726" lon="5.78866">
        <ele>509.617</ele>
        <time>2022-09-24T11:01:05Z</time>
      </trkpt>
      <trkpt lat="46.07407" lon="5.78888">
        <ele>517.309</ele>
        <time>2022-09-24T11:01:29Z</time>
      </trkpt>
      <trkpt lat="46.07623" lon="5.78953">
        <ele>527.484</ele>
        <time>2022-09-24T11:03:06Z</time>
      </trkpt>
      <trkpt lat="46.0773" lon="5.7847">
        <ele>550.534</ele>
        <time>2022-09-24T11:03:46Z</time>
      </trkpt>
      <trkpt lat="46.07754" lon="5.78443">
        <ele>552.997</ele>
        <time>2022-09-24T11:03:51Z</time>
      </trkpt>
      <trkpt lat="46.07759" lon="5.78396">
        <ele>556.35</ele>
        <time>2022-09-24T11:03:58Z</time>
      </trkpt>
      <trkpt lat="46.08319" lon="5.77661">
        <ele>527.473</ele>
        <time>2022-09-24T11:04:52Z</time>
      </trkpt>
      <trkpt lat="46.08331" lon="5.77659">
        <ele>527.449</ele>
        <time>2022-09-24T11:04:53Z</time>
      </trkpt>
      <trkpt lat="46.08379" lon="5.77732">
        <ele>530.362</ele>
        <time>2022-09-24T11:05:00Z</time>
      </trkpt>
      <trkpt lat="46.0845" lon="5.77804">
        <ele>530.326</ele>
        <time>2022-09-24T11:05:07Z</time>
      </trkpt>
      <trkpt lat="46.0855" lon="5.77864">
        <ele>525.552</ele>
        <time>2022-09-24T11:05:16Z</time>
      </trkpt>
      <trkpt lat="46.08601" lon="5.78189">
        <ele>528.414</ele>
        <time>2022-09-24T11:05:31Z</time>
      </trkpt>
      <trkpt lat="46.08669" lon="5.78284">
        <ele>534.154</ele>
        <time>2022-09-24T11:05:39Z</time>
      </trkpt>
      <trkpt lat="46.08662" lon="5.78431">
        <ele>544.209</ele>
        <time>2022-09-24T11:05:49Z</time>
      </trkpt>
      <trkpt lat="46.08672" lon="5.78457">
        <ele>546.609</ele>
        <time>2022-09-24T11:05:52Z</time>
      </trkpt>
      <trkpt lat="46.08799" lon="5.78467">
        <ele>549.562</ele>
        <time>2022-09-24T11:06:05Z</time>
      </trkpt>
      <trkpt lat="46.08884" lon="5.78507">
        <ele>552.962</ele>
        <time>2022-09-24T11:06:15Z</time>
      </trkpt>
      <trkpt lat="46.08924" lon="5.78492">
        <ele>554.895</ele>
        <time>2022-09-24T11:06:21Z</time>
      </trkpt>
      <trkpt lat="46.09123" lon="5.78306">
        <ele>566.498</ele>
        <time>2022-09-24T11:06:46Z</time>
      </trkpt>
      <trkpt lat="46.09149" lon="5.7831">
        <ele>567.361</ele>
        <time>2022-09-24T11:06:50Z</time>
      </trkpt>
      <trkpt lat="46.09248" lon="5.78259">
        <ele>572.117</ele>
        <time>2022-09-24T11:07:00Z</time>
      </trkpt>
      <trkpt lat="46.09344" lon="5.78168">
        <ele>577.47</ele>
        <time>2022-09-24T11:07:13Z</time>
      </trkpt>
      <trkpt lat="46.09393" lon="5.78096">
        <ele>576.514</ele>
        <time>2022-09-24T11:07:26Z</time>
      </trkpt>
      <trkpt lat="46.09441" lon="5.78072">
        <ele>576.91</ele>
        <time>2022-09-24T11:07:33Z</time>
      </trkpt>
      <trkpt lat="46.09513" lon="5.7798">
        <ele>580.371</ele>
        <time>2022-09-24T11:07:48Z</time>
      </trkpt>
      <trkpt lat="46.09551" lon="5.77981">
        <ele>581.341</ele>
        <time>2022-09-24T11:07:53Z</time>
      </trkpt>
      <trkpt lat="46.09591" lon="5.7796">
        <ele>581.715</ele>
        <time>2022-09-24T11:07:59Z</time>
      </trkpt>
      <trkpt lat="46.0972" lon="5.77953">
        <ele>578.409</ele>
        <time>2022-09-24T11:08:18Z</time>
      </trkpt>
      <trkpt lat="46.09799" lon="5.77912">
        <ele>574.018</ele>
        <time>2022-09-24T11:08:30Z</time>
      </trkpt>
      <trkpt lat="46.09914" lon="5.77822">
        <ele>570.788</ele>
        <time>2022-09-24T11:08:49Z</time>
      </trkpt>
      <trkpt lat="46.09986" lon="5.77803">
        <ele>571.691</ele>
        <time>2022-09-24T11:09:04Z</time>
      </trkpt>
      <trkpt lat="46.0999" lon="5.77813">
        <ele>564.994</ele>
        <time>2022-09-24T11:18:17Z</time>
      </trkpt>
      <trkpt lat="46.10065" lon="5.77683">
        <ele>569.277</ele>
        <time>2022-09-24T11:19:10Z</time>
      </trkpt>
      <trkpt lat="46.10646" lon="5.77854">
        <ele>575.573</ele>
        <time>2022-09-24T11:20:03Z</time>
      </trkpt>
      <trkpt lat="46.10711" lon="5.77884">
        <ele>576.586</ele>
        <time>2022-09-24T11:20:12Z</time>
      </trkpt>
      <trkpt lat="46.10728" lon="5.77909">
        <ele>576.99</ele>
        <time>2022-09-24T11:20:17Z</time>
      </trkpt>
      <trkpt lat="46.10811" lon="5.77859">
        <ele>578.946</ele>
        <time>2022-09-24T11:20:34Z</time>
      </trkpt>
      <trkpt lat="46.10913" lon="5.77853">
        <ele>601.053</ele>
        <time>2022-09-24T11:21:05Z</time>
      </trkpt>
      <trkpt lat="46.10998" lon="5.7781">
        <ele>605.304</ele>
        <time>2022-09-24T11:21:13Z</time>
      </trkpt>
      <trkpt lat="46.11171" lon="5.77795">
        <ele>615.914</ele>
        <time>2022-09-24T11:21:25Z</time>
      </trkpt>
      <trkpt lat="46.11228" lon="5.77772">
        <ele>621.109</ele>
        <time>2022-09-24T11:21:30Z</time>
      </trkpt>
      <trkpt lat="46.114" lon="5.77779">
        <ele>634.686</ele>
        <time>2022-09-24T11:21:45Z</time>
      </trkpt>
      <trkpt lat="46.11448" lon="5.77767">
        <ele>638.916</ele>
        <time>2022-09-24T11:21:49Z</time>
      </trkpt>
      <trkpt lat="46.11709" lon="5.77813">
        <ele>660.629</ele>
        <time>2022-09-24T11:22:06Z</time>
      </trkpt>
      <trkpt lat="46.11797" lon="5.77769">
        <ele>668.392</ele>
        <time>2022-09-24T11:22:13Z</time>
      </trkpt>
      <trkpt lat="46.11839" lon="5.77784">
        <ele>671.665</ele>
        <time>2022-09-24T11:22:16Z</time>
      </trkpt>
      <trkpt lat="46.12213" lon="5.77829">
        <ele>688.421</ele>
        <time>2022-09-24T11:22:39Z</time>
      </trkpt>
      <trkpt lat="46.12533" lon="5.77782">
        <ele>709.644</ele>
        <time>2022-09-24T11:22:57Z</time>
      </trkpt>
      <trkpt lat="46.12733" lon="5.77799">
        <ele>723.098</ele>
        <time>2022-09-24T11:23:10Z</time>
      </trkpt>
      <trkpt lat="46.12838" lon="5.77793">
        <ele>731.744</ele>
        <time>2022-09-24T11:23:17Z</time>
      </trkpt>
      <trkpt lat="46.12893" lon="5.77782">
        <ele>738.939</ele>
        <time>2022-09-24T11:23:23Z</time>
      </trkpt>
      <trkpt lat="46.12917" lon="5.77764">
        <ele>745.601</ele>
        <time>2022-09-24T11:23:29Z</time>
      </trkpt>
      <trkpt lat="46.12991" lon="5.77845">
        <ele>746.121</ele>
        <time>2022-09-24T11:23:40Z</time>
      </trkpt>
      <trkpt lat="46.13037" lon="5.77936">
        <ele>741.309</ele>
        <time>2022-09-24T11:23:46Z</time>
      </trkpt>
      <trkpt lat="46.13138" lon="5.78041">
        <ele>732.294</ele>
        <time>2022-09-24T11:23:55Z</time>
      </trkpt>
      <trkpt lat="46.13174" lon="5.78065">
        <ele>725.084</ele>
        <time>2022-09-24T11:24:01Z</time>
      </trkpt>
      <trkpt lat="46.13195" lon="5.78029">
        <ele>717.337</ele>
        <time>2022-09-24T11:24:08Z</time>
      </trkpt>
      <trkpt lat="46.13228" lon="5.78072">
        <ele>711.03</ele>
        <time>2022-09-24T11:24:14Z</time>
      </trkpt>
      <trkpt lat="46.134" lon="5.78046">
        <ele>693.793</ele>
        <time>2022-09-24T11:24:27Z</time>
      </trkpt>
      <trkpt lat="46.13458" lon="5.78063">
        <ele>690.899</ele>
        <time>2022-09-24T11:24:32Z</time>
      </trkpt>
      <trkpt lat="46.13595" lon="5.78021">
        <ele>685.672</ele>
        <time>2022-09-24T11:24:44Z</time>
      </trkpt>
      <trkpt lat="46.13816" lon="5.77865">
        <ele>688.456</ele>
        <time>2022-09-24T11:25:16Z</time>
      </trkpt>
      <trkpt lat="46.1392" lon="5.77861">
        <ele>688.932</ele>
        <time>2022-09-24T11:25:27Z</time>
      </trkpt>
      <trkpt lat="46.14117" lon="5.77899">
        <ele>691.313</ele>
        <time>2022-09-24T11:25:50Z</time>
      </trkpt>
      <trkpt lat="46.14238" lon="5.77841">
        <ele>692.343</ele>
        <time>2022-09-24T11:26:07Z</time>
      </trkpt>
      <trkpt lat="46.14508" lon="5.77796">
        <ele>705.307</ele>
        <time>2022-09-24T11:26:45Z</time>
      </trkpt>
      <trkpt lat="46.14547" lon="5.77771">
        <ele>708.609</ele>
        <time>2022-09-24T11:26:50Z</time>
      </trkpt>
      <trkpt lat="46.14571" lon="5.7773">
        <ele>711.542</ele>
        <time>2022-09-24T11:26:53Z</time>
      </trkpt>
      <trkpt lat="46.14655" lon="5.77447">
        <ele>727.932</ele>
        <time>2022-09-24T11:27:34Z</time>
      </trkpt>
      <trkpt lat="46.14706" lon="5.77356">
        <ele>735.185</ele>
        <time>2022-09-24T11:27:44Z</time>
      </trkpt>
      <trkpt lat="46.14803" lon="5.77307">
        <ele>742.818</ele>
        <time>2022-09-24T11:27:56Z</time>
      </trkpt>
      <trkpt lat="46.14892" lon="5.77296">
        <ele>752.921</ele>
        <time>2022-09-24T11:28:07Z</time>
      </trkpt>
      <trkpt lat="46.1496" lon="5.7724">
        <ele>762.037</ele>
        <time>2022-09-24T11:28:18Z</time>
      </trkpt>
      <trkpt lat="46.14953" lon="5.77119">
        <ele>766.81</ele>
        <time>2022-09-24T11:28:30Z</time>
      </trkpt>
      <trkpt lat="46.14978" lon="5.77067">
        <ele>770.614</ele>
        <time>2022-09-24T11:28:36Z</time>
      </trkpt>
      <trkpt lat="46.1505" lon="5.77022">
        <ele>776.93</ele>
        <time>2022-09-24T11:28:47Z</time>
      </trkpt>
      <trkpt lat="46.1512" lon="5.77023">
        <ele>781.745</ele>
        <time>2022-09-24T11:28:57Z</time>
      </trkpt>
      <trkpt lat="46.1515" lon="5.77053">
        <ele>789.447</ele>
        <time>2022-09-24T11:29:02Z</time>
      </trkpt>
      <trkpt lat="46.15248" lon="5.77098">
        <ele>813.411</ele>
        <time>2022-09-24T11:29:15Z</time>
      </trkpt>
      <trkpt lat="46.1531" lon="5.77094">
        <ele>818.209</ele>
        <time>2022-09-24T11:29:22Z</time>
      </trkpt>
      <trkpt lat="46.15374" lon="5.77059">
        <ele>822.195</ele>
        <time>2022-09-24T11:29:32Z</time>
      </trkpt>
      <trkpt lat="46.1541" lon="5.77055">
        <ele>823.555</ele>
        <time>2022-09-24T11:29:39Z</time>
      </trkpt>
      <trkpt lat="46.15468" lon="5.76999">
        <ele>830.728</ele>
        <time>2022-09-24T11:30:08Z</time>
      </trkpt>
      <trkpt lat="46.15525" lon="5.76979">
        <ele>833.191</ele>
        <time>2022-09-24T11:30:18Z</time>
      </trkpt>
      <trkpt lat="46.15585" lon="5.76889">
        <ele>835.034</ele>
        <time>2022-09-24T11:30:30Z</time>
      </trkpt>
      <trkpt lat="46.15567" lon="5.7665">
        <ele>835.57</ele>
        <time>2022-09-24T11:30:57Z</time>
      </trkpt>
      <trkpt lat="46.15525" lon="5.76498">
        <ele>840.823</ele>
        <time>2022-09-24T11:31:12Z</time>
      </trkpt>
      <trkpt lat="46.15601" lon="5.76329">
        <ele>850.967</ele>
        <time>2022-09-24T11:31:30Z</time>
      </trkpt>
      <trkpt lat="46.15589" lon="5.76251">
        <ele>853.333</ele>
        <time>2022-09-24T11:31:39Z</time>
      </trkpt>
      <trkpt lat="46.15605" lon="5.7612">
        <ele>855.723</ele>
        <time>2022-09-24T11:31:51Z</time>
      </trkpt>
      <trkpt lat="46.1563" lon="5.76067">
        <ele>858.183</ele>
        <time>2022-09-24T11:31:57Z</time>
      </trkpt>
      <trkpt lat="46.15637" lon="5.75994">
        <ele>860.011</ele>
        <time>2022-09-24T11:32:05Z</time>
      </trkpt>
      <trkpt lat="46.15676" lon="5.75861">
        <ele>862.909</ele>
        <time>2022-09-24T11:32:20Z</time>
      </trkpt>
      <trkpt lat="46.15678" lon="5.75731">
        <ele>864.813</ele>
        <time>2022-09-24T11:32:32Z</time>
      </trkpt>
      <trkpt lat="46.1566" lon="5.75659">
        <ele>865.893</ele>
        <time>2022-09-24T11:32:41Z</time>
      </trkpt>
      <trkpt lat="46.15261" lon="5.75272">
        <ele>876.496</ele>
        <time>2022-09-24T11:33:39Z</time>
      </trkpt>
      <trkpt lat="46.14889" lon="5.75105">
        <ele>874.989</ele>
        <time>2022-09-24T11:34:23Z</time>
      </trkpt>
      <trkpt lat="46.14542" lon="5.74848">
        <ele>904.332</ele>
        <time>2022-09-24T11:35:07Z</time>
      </trkpt>
      <trkpt lat="46.14418" lon="5.7478">
        <ele>913.438</ele>
        <time>2022-09-24T11:35:22Z</time>
      </trkpt>
      <trkpt lat="46.14334" lon="5.74635">
        <ele>894.641</ele>
        <time>2022-09-24T11:35:40Z</time>
      </trkpt>
      <trkpt lat="46.14316" lon="5.74553">
        <ele>891.375</ele>
        <time>2022-09-24T11:35:50Z</time>
      </trkpt>
      <trkpt lat="46.14318" lon="5.74469">
        <ele>888.961</ele>
        <time>2022-09-24T11:36:00Z</time>
      </trkpt>
      <trkpt lat="46.14231" lon="5.74411">
        <ele>879.361</ele>
        <time>2022-09-24T11:36:19Z</time>
      </trkpt>
      <trkpt lat="46.14224" lon="5.74374">
        <ele>876.421</ele>
        <time>2022-09-24T11:36:24Z</time>
      </trkpt>
      <trkpt lat="46.1432" lon="5.74415">
        <ele>863.413</ele>
        <time>2022-09-24T11:36:45Z</time>
      </trkpt>
      <trkpt lat="46.144" lon="5.74529">
        <ele>843.209</ele>
        <time>2022-09-24T11:37:03Z</time>
      </trkpt>
      <trkpt lat="46.14467" lon="5.74562">
        <ele>828.857</ele>
        <time>2022-09-24T11:37:14Z</time>
      </trkpt>
      <trkpt lat="46.14505" lon="5.74621">
        <ele>817.347</ele>
        <time>2022-09-24T11:37:23Z</time>
      </trkpt>
      <trkpt lat="46.14621" lon="5.74696">
        <ele>796.17</ele>
        <time>2022-09-24T11:37:40Z</time>
      </trkpt>
      <trkpt lat="46.14706" lon="5.74736">
        <ele>784.163</ele>
        <time>2022-09-24T11:37:51Z</time>
      </trkpt>
      <trkpt lat="46.14788" lon="5.74742">
        <ele>767.856</ele>
        <time>2022-09-24T11:38:05Z</time>
      </trkpt>
      <trkpt lat="46.148" lon="5.74783">
        <ele>762.082</ele>
        <time>2022-09-24T11:38:10Z</time>
      </trkpt>
      <trkpt lat="46.14903" lon="5.74853">
        <ele>745.275</ele>
        <time>2022-09-24T11:38:27Z</time>
      </trkpt>
      <trkpt lat="46.15067" lon="5.74888">
        <ele>725.949</ele>
        <time>2022-09-24T11:38:50Z</time>
      </trkpt>
      <trkpt lat="46.15112" lon="5.74866">
        <ele>718.755</ele>
        <time>2022-09-24T11:38:57Z</time>
      </trkpt>
      <trkpt lat="46.15146" lon="5.74817">
        <ele>710.198</ele>
        <time>2022-09-24T11:39:06Z</time>
      </trkpt>
      <trkpt lat="46.15184" lon="5.74828">
        <ele>704.315</ele>
        <time>2022-09-24T11:39:14Z</time>
      </trkpt>
      <trkpt lat="46.15254" lon="5.74802">
        <ele>693.326</ele>
        <time>2022-09-24T11:39:27Z</time>
      </trkpt>
      <trkpt lat="46.15338" lon="5.74703">
        <ele>692.309</ele>
        <time>2022-09-24T11:44:14Z</time>
      </trkpt>
      <trkpt lat="46.15378" lon="5.74699">
        <ele>692.34</ele>
        <time>2022-09-24T11:44:19Z</time>
      </trkpt>
      <trkpt lat="46.15455" lon="5.74731">
        <ele>687.59</ele>
        <time>2022-09-24T11:44:27Z</time>
      </trkpt>
      <trkpt lat="46.1551" lon="5.74854">
        <ele>677.953</ele>
        <time>2022-09-24T11:44:36Z</time>
      </trkpt>
      <trkpt lat="46.1559" lon="5.74958">
        <ele>665.436</ele>
        <time>2022-09-24T11:44:45Z</time>
      </trkpt>
      <trkpt lat="46.15665" lon="5.74968">
        <ele>659.619</ele>
        <time>2022-09-24T11:44:52Z</time>
      </trkpt>
      <trkpt lat="46.15784" lon="5.7483">
        <ele>648.185</ele>
        <time>2022-09-24T11:45:04Z</time>
      </trkpt>
      <trkpt lat="46.15807" lon="5.74778">
        <ele>643.778</ele>
        <time>2022-09-24T11:45:09Z</time>
      </trkpt>
      <trkpt lat="46.15869" lon="5.74819">
        <ele>636.052</ele>
        <time>2022-09-24T11:45:18Z</time>
      </trkpt>
      <trkpt lat="46.1602" lon="5.74874">
        <ele>624.568</ele>
        <time>2022-09-24T11:45:35Z</time>
      </trkpt>
      <trkpt lat="46.16032" lon="5.74823">
        <ele>625.012</ele>
        <time>2022-09-24T11:45:39Z</time>
      </trkpt>
      <trkpt lat="46.16028" lon="5.74752">
        <ele>622.632</ele>
        <time>2022-09-24T11:45:45Z</time>
      </trkpt>
      <trkpt lat="46.16065" lon="5.74731">
        <ele>619.205</ele>
        <time>2022-09-24T11:45:53Z</time>
      </trkpt>
      <trkpt lat="46.16143" lon="5.74877">
        <ele>600.009</ele>
        <time>2022-09-24T11:46:08Z</time>
      </trkpt>
      <trkpt lat="46.16175" lon="5.749">
        <ele>593.342</ele>
        <time>2022-09-24T11:46:14Z</time>
      </trkpt>
      <trkpt lat="46.16268" lon="5.75051">
        <ele>577.492</ele>
        <time>2022-09-24T11:46:27Z</time>
      </trkpt>
      <trkpt lat="46.16251" lon="5.75135">
        <ele>568.835</ele>
        <time>2022-09-24T11:46:36Z</time>
      </trkpt>
      <trkpt lat="46.1634" lon="5.75284">
        <ele>555.828</ele>
        <time>2022-09-24T11:46:48Z</time>
      </trkpt>
      <trkpt lat="46.16384" lon="5.75315">
        <ele>548.161</ele>
        <time>2022-09-24T11:46:53Z</time>
      </trkpt>
      <trkpt lat="46.1642" lon="5.7531">
        <ele>543.827</ele>
        <time>2022-09-24T11:46:57Z</time>
      </trkpt>
      <trkpt lat="46.16443" lon="5.75323">
        <ele>540.94</ele>
        <time>2022-09-24T11:47:00Z</time>
      </trkpt>
      <trkpt lat="46.16475" lon="5.75607">
        <ele>515.424</ele>
        <time>2022-09-24T11:47:23Z</time>
      </trkpt>
      <trkpt lat="46.16528" lon="5.75715">
        <ele>502.42</ele>
        <time>2022-09-24T11:47:33Z</time>
      </trkpt>
      <trkpt lat="46.16525" lon="5.75791">
        <ele>496.216</ele>
        <time>2022-09-24T11:47:37Z</time>
      </trkpt>
      <trkpt lat="46.16488" lon="5.7594">
        <ele>482.776</ele>
        <time>2022-09-24T11:47:47Z</time>
      </trkpt>
      <trkpt lat="46.1647" lon="5.75958">
        <ele>477.413</ele>
        <time>2022-09-24T11:47:51Z</time>
      </trkpt>
      <trkpt lat="46.16483" lon="5.76062">
        <ele>462.509</ele>
        <time>2022-09-24T11:48:02Z</time>
      </trkpt>
      <trkpt lat="46.1645" lon="5.76163">
        <ele>449.692</ele>
        <time>2022-09-24T11:48:12Z</time>
      </trkpt>
      <trkpt lat="46.16374" lon="5.76649">
        <ele>423.192</ele>
        <time>2022-09-24T11:49:00Z</time>
      </trkpt>
      <trkpt lat="46.16413" lon="5.76705">
        <ele>425.565</ele>
        <time>2022-09-24T11:49:07Z</time>
      </trkpt>
      <trkpt lat="46.16456" lon="5.76865">
        <ele>427.478</ele>
        <time>2022-09-24T11:51:46Z</time>
      </trkpt>
      <trkpt lat="46.16467" lon="5.76866">
        <ele>427.441</ele>
        <time>2022-09-24T11:51:47Z</time>
      </trkpt>
      <trkpt lat="46.1652" lon="5.76596">
        <ele>436.397</ele>
        <time>2022-09-24T11:52:15Z</time>
      </trkpt>
      <trkpt lat="46.16558" lon="5.76478">
        <ele>435.77</ele>
        <time>2022-09-24T11:52:29Z</time>
      </trkpt>
      <trkpt lat="46.16604" lon="5.76403">
        <ele>446.084</ele>
        <time>2022-09-24T11:52:40Z</time>
      </trkpt>
      <trkpt lat="46.1676" lon="5.76272">
        <ele>458.98</ele>
        <time>2022-09-24T11:53:09Z</time>
      </trkpt>
      <trkpt lat="46.16799" lon="5.76191">
        <ele>425.544</ele>
        <time>2022-09-24T11:53:21Z</time>
      </trkpt>
      <trkpt lat="46.1691" lon="5.76065">
        <ele>438.005</ele>
        <time>2022-09-24T11:53:49Z</time>
      </trkpt>
      <trkpt lat="46.16944" lon="5.75996">
        <ele>443.815</ele>
        <time>2022-09-24T11:54:01Z</time>
      </trkpt>
      <trkpt lat="46.17046" lon="5.75644">
        <ele>499.109</ele>
        <time>2022-09-24T11:55:08Z</time>
      </trkpt>
      <trkpt lat="46.17143" lon="5.75576">
        <ele>518.855</ele>
        <time>2022-09-24T11:55:47Z</time>
      </trkpt>
      <trkpt lat="46.17249" lon="5.75371">
        <ele>534.695</ele>
        <time>2022-09-24T11:56:02Z</time>
      </trkpt>
      <trkpt lat="46.17296" lon="5.7533">
        <ele>543.348</ele>
        <time>2022-09-24T11:56:09Z</time>
      </trkpt>
      <trkpt lat="46.17338" lon="5.75354">
        <ele>550.571</ele>
        <time>2022-09-24T11:56:17Z</time>
      </trkpt>
      <trkpt lat="46.17355" lon="5.75349">
        <ele>552.964</ele>
        <time>2022-09-24T11:56:20Z</time>
      </trkpt>
      <trkpt lat="46.17375" lon="5.75009">
        <ele>539.44</ele>
        <time>2022-09-24T11:56:40Z</time>
      </trkpt>
      <trkpt lat="46.17396" lon="5.74961">
        <ele>530.253</ele>
        <time>2022-09-24T11:56:44Z</time>
      </trkpt>
      <trkpt lat="46.17431" lon="5.74945">
        <ele>533.157</ele>
        <time>2022-09-24T11:56:47Z</time>
      </trkpt>
      <trkpt lat="46.17453" lon="5.74884">
        <ele>527.873</ele>
        <time>2022-09-24T11:56:52Z</time>
      </trkpt>
      <trkpt lat="46.17544" lon="5.74789">
        <ele>526.931</ele>
        <time>2022-09-24T11:57:02Z</time>
      </trkpt>
      <trkpt lat="46.17623" lon="5.74737">
        <ele>526.561</ele>
        <time>2022-09-24T11:57:10Z</time>
      </trkpt>
      <trkpt lat="46.1766" lon="5.74659">
        <ele>528.407</ele>
        <time>2022-09-24T11:57:16Z</time>
      </trkpt>
      <trkpt lat="46.17742" lon="5.74597">
        <ele>529.309</ele>
        <time>2022-09-24T11:57:23Z</time>
      </trkpt>
      <trkpt lat="46.17791" lon="5.74492">
        <ele>534.164</ele>
        <time>2022-09-24T11:57:30Z</time>
      </trkpt>
      <trkpt lat="46.17844" lon="5.74452">
        <ele>535.684</ele>
        <time>2022-09-24T11:57:35Z</time>
      </trkpt>
      <trkpt lat="46.17924" lon="5.74347">
        <ele>536.537</ele>
        <time>2022-09-24T11:57:42Z</time>
      </trkpt>
      <trkpt lat="46.17988" lon="5.74296">
        <ele>541.81</ele>
        <time>2022-09-24T11:57:47Z</time>
      </trkpt>
      <trkpt lat="46.18048" lon="5.74222">
        <ele>549.093</ele>
        <time>2022-09-24T11:57:55Z</time>
      </trkpt>
      <trkpt lat="46.18054" lon="5.74175">
        <ele>550.559</ele>
        <time>2022-09-24T11:57:59Z</time>
      </trkpt>
      <trkpt lat="46.18105" lon="5.74066">
        <ele>543.872</ele>
        <time>2022-09-24T11:58:07Z</time>
      </trkpt>
      <trkpt lat="46.18127" lon="5.73964">
        <ele>533.756</ele>
        <time>2022-09-24T11:58:15Z</time>
      </trkpt>
      <trkpt lat="46.18196" lon="5.73928">
        <ele>524.522</ele>
        <time>2022-09-24T11:58:22Z</time>
      </trkpt>
      <trkpt lat="46.18314" lon="5.73947">
        <ele>511.163</ele>
        <time>2022-09-24T11:58:32Z</time>
      </trkpt>
      <trkpt lat="46.18339" lon="5.7394">
        <ele>501.944</ele>
        <time>2022-09-24T11:58:54Z</time>
      </trkpt>
    </trkseg>
  </trk>
</gpx>